sensor_id;sensor_type;location;lat;lon;timestamp;temperature;humidity
16513;DHT22;8369;48.030;11.598;2023-11-21T00:02:05;7.70;99.90
16513;DHT22;8369;48.030;11.598;2023-11-21T00:04:30;7.70;99.90
16513;DHT22;8369;48.030;11.598;2023-11-21T00:06:56;7.70;99.90
16513;DHT22;8369;48.030;11.598;2023-11-21T00:09:24;7.70;99.90
16513;DHT22;8369;48.030;11.598;2023-11-21T00:11:50;7.70;99.90
16513;DHT22;8369;48.030;11.598;2023-11-21T00:14:22;7.70;99.90
16513;DHT22;8369;48.030;11.598;2023-11-21T00:16:48;7.70;99.90
16513;DHT22;8369;48.030;11.598;2023-11-21T00:19:14;7.80;99.90
16513;DHT22;8369;48.030;11.598;2023-11-21T00:21:41;7.80;99.90
16513;DHT22;8369;48.030;11.598;2023-11-21T00:24:11;7.80;99.90
16513;DHT22;8369;48.030;11.598;2023-11-21T00:26:40;7.80;99.90
16513;DHT22;8369;48.030;11.598;2023-11-21T00:29:08;7.80;99.90
16513;DHT22;8369;48.030;11.598;2023-11-21T00:31:34;7.80;99.90
16513;DHT22;8369;48.030;11.598;2023-11-21T00:34:04;7.70;99.90
16513;DHT22;8369;48.030;11.598;2023-11-21T00:36:32;7.70;99.90
16513;DHT22;8369;48.030;11.598;2023-11-21T00:38:59;7.70;99.90
16513;DHT22;8369;48.030;11.598;2023-11-21T00:41:25;7.70;99.90
16513;DHT22;8369;48.030;11.598;2023-11-21T00:43:56;7.70;99.90
16513;DHT22;8369;48.030;11.598;2023-11-21T00:46:22;7.60;99.90
16513;DHT22;8369;48.030;11.598;2023-11-21T00:48:50;7.60;99.90
16513;DHT22;8369;48.030;11.598;2023-11-21T00:51:29;7.60;99.90
16513;DHT22;8369;48.030;11.598;2023-11-21T00:53:56;7.60;99.90
16513;DHT22;8369;48.030;11.598;2023-11-21T00:56:22;7.50;99.90
16513;DHT22;8369;48.030;11.598;2023-11-21T00:58:50;7.50;99.90
16513;DHT22;8369;48.030;11.598;2023-11-21T01:01:21;7.50;99.90
16513;DHT22;8369;48.030;11.598;2023-11-21T01:03:50;7.50;99.90
16513;DHT22;8369;48.030;11.598;2023-11-21T01:06:17;7.50;99.90
16513;DHT22;8369;48.030;11.598;2023-11-21T01:08:45;7.40;99.90
16513;DHT22;8369;48.030;11.598;2023-11-21T01:11:12;7.40;99.90
16513;DHT22;8369;48.030;11.598;2023-11-21T01:13:39;7.40;99.90
16513;DHT22;8369;48.030;11.598;2023-11-21T01:16:06;7.40;99.90
16513;DHT22;8369;48.030;11.598;2023-11-21T01:18:32;7.40;99.90
16513;DHT22;8369;48.030;11.598;2023-11-21T01:20:58;7.30;99.90
16513;DHT22;8369;48.030;11.598;2023-11-21T01:23:28;7.30;99.90
16513;DHT22;8369;48.030;11.598;2023-11-21T01:25:56;7.30;99.90
16513;DHT22;8369;48.030;11.598;2023-11-21T01:28:24;7.30;99.90
16513;DHT22;8369;48.030;11.598;2023-11-21T01:30:50;7.20;99.90
16513;DHT22;8369;48.030;11.598;2023-11-21T01:33:16;7.20;99.90
16513;DHT22;8369;48.030;11.598;2023-11-21T01:35:43;7.20;99.90
16513;DHT22;8369;48.030;11.598;2023-11-21T01:38:10;7.10;99.90
16513;DHT22;8369;48.030;11.598;2023-11-21T01:41:07;7.10;99.90
16513;DHT22;8369;48.030;11.598;2023-11-21T01:43:34;7.10;99.90
16513;DHT22;8369;48.030;11.598;2023-11-21T01:46:00;7.10;99.90
16513;DHT22;8369;48.030;11.598;2023-11-21T01:48:26;7.10;99.90
16513;DHT22;8369;48.030;11.598;2023-11-21T01:50:55;7.00;99.90
16513;DHT22;8369;48.030;11.598;2023-11-21T01:53:24;7.00;99.90
16513;DHT22;8369;48.030;11.598;2023-11-21T01:55:55;7.00;99.90
16513;DHT22;8369;48.030;11.598;2023-11-21T01:58:24;6.90;99.90
16513;DHT22;8369;48.030;11.598;2023-11-21T02:00:49;6.90;99.90
16513;DHT22;8369;48.030;11.598;2023-11-21T02:03:17;6.90;99.90
16513;DHT22;8369;48.030;11.598;2023-11-21T02:05:43;6.90;99.90
16513;DHT22;8369;48.030;11.598;2023-11-21T02:08:09;6.90;99.90
16513;DHT22;8369;48.030;11.598;2023-11-21T02:10:41;6.90;99.90
16513;DHT22;8369;48.030;11.598;2023-11-21T02:13:07;6.90;99.90
16513;DHT22;8369;48.030;11.598;2023-11-21T02:15:33;6.90;99.90
16513;DHT22;8369;48.030;11.598;2023-11-21T02:18:11;6.90;99.90
16513;DHT22;8369;48.030;11.598;2023-11-21T02:20:37;6.90;99.90
16513;DHT22;8369;48.030;11.598;2023-11-21T02:23:08;6.90;99.90
16513;DHT22;8369;48.030;11.598;2023-11-21T02:25:34;6.90;99.90
16513;DHT22;8369;48.030;11.598;2023-11-21T02:28:01;6.90;99.90
16513;DHT22;8369;48.030;11.598;2023-11-21T02:30:28;6.90;99.90
16513;DHT22;8369;48.030;11.598;2023-11-21T02:33:01;6.90;99.90
16513;DHT22;8369;48.030;11.598;2023-11-21T02:35:27;6.90;99.90
16513;DHT22;8369;48.030;11.598;2023-11-21T02:37:53;6.90;99.90
16513;DHT22;8369;48.030;11.598;2023-11-21T02:40:20;6.90;99.90
16513;DHT22;8369;48.030;11.598;2023-11-21T02:43:00;7.00;99.90
16513;DHT22;8369;48.030;11.598;2023-11-21T02:45:26;7.00;99.90
16513;DHT22;8369;48.030;11.598;2023-11-21T02:47:52;7.00;99.90
16513;DHT22;8369;48.030;11.598;2023-11-21T02:50:19;7.00;99.90
16513;DHT22;8369;48.030;11.598;2023-11-21T02:52:46;7.00;99.90
16513;DHT22;8369;48.030;11.598;2023-11-21T02:55:12;7.00;99.90
16513;DHT22;8369;48.030;11.598;2023-11-21T02:57:37;7.00;99.90
16513;DHT22;8369;48.030;11.598;2023-11-21T03:00:06;7.00;99.90
16513;DHT22;8369;48.030;11.598;2023-11-21T03:02:34;7.10;99.90
16513;DHT22;8369;48.030;11.598;2023-11-21T03:05:13;7.10;99.90
16513;DHT22;8369;48.030;11.598;2023-11-21T03:07:39;7.20;99.90
16513;DHT22;8369;48.030;11.598;2023-11-21T03:10:11;7.20;99.90
16513;DHT22;8369;48.030;11.598;2023-11-21T03:12:38;7.20;99.90
16513;DHT22;8369;48.030;11.598;2023-11-21T03:15:05;7.30;99.90
16513;DHT22;8369;48.030;11.598;2023-11-21T03:17:33;7.30;99.90
16513;DHT22;8369;48.030;11.598;2023-11-21T03:20:06;7.30;99.90
16513;DHT22;8369;48.030;11.598;2023-11-21T03:22:36;7.30;99.90
16513;DHT22;8369;48.030;11.598;2023-11-21T03:25:04;7.30;99.90
16513;DHT22;8369;48.030;11.598;2023-11-21T03:27:30;7.40;99.90
16513;DHT22;8369;48.030;11.598;2023-11-21T03:29:56;7.40;99.90
16513;DHT22;8369;48.030;11.598;2023-11-21T03:32:23;7.40;99.90
16513;DHT22;8369;48.030;11.598;2023-11-21T03:34:54;7.40;99.90
16513;DHT22;8369;48.030;11.598;2023-11-21T03:37:21;7.40;99.90
16513;DHT22;8369;48.030;11.598;2023-11-21T03:39:48;7.50;99.90
16513;DHT22;8369;48.030;11.598;2023-11-21T03:42:15;7.50;99.90
16513;DHT22;8369;48.030;11.598;2023-11-21T03:44:44;7.50;99.90
16513;DHT22;8369;48.030;11.598;2023-11-21T03:47:10;7.60;99.90
16513;DHT22;8369;48.030;11.598;2023-11-21T03:49:38;7.60;99.90
16513;DHT22;8369;48.030;11.598;2023-11-21T03:52:04;7.60;99.90
16513;DHT22;8369;48.030;11.598;2023-11-21T03:54:30;7.50;99.90
16513;DHT22;8369;48.030;11.598;2023-11-21T03:56:58;7.50;99.90
16513;DHT22;8369;48.030;11.598;2023-11-21T03:59:24;7.50;99.90
16513;DHT22;8369;48.030;11.598;2023-11-21T04:01:50;7.50;99.90
16513;DHT22;8369;48.030;11.598;2023-11-21T04:04:17;7.50;99.90
16513;DHT22;8369;48.030;11.598;2023-11-21T04:06:43;7.50;99.90
16513;DHT22;8369;48.030;11.598;2023-11-21T04:09:10;7.50;99.90
16513;DHT22;8369;48.030;11.598;2023-11-21T04:11:37;7.50;99.90
16513;DHT22;8369;48.030;11.598;2023-11-21T04:14:03;7.50;99.90
16513;DHT22;8369;48.030;11.598;2023-11-21T04:16:35;7.50;99.90
16513;DHT22;8369;48.030;11.598;2023-11-21T04:19:01;7.50;99.90
16513;DHT22;8369;48.030;11.598;2023-11-21T04:21:29;7.50;99.90
16513;DHT22;8369;48.030;11.598;2023-11-21T04:23:55;7.50;99.90
16513;DHT22;8369;48.030;11.598;2023-11-21T04:26:21;7.50;99.90
16513;DHT22;8369;48.030;11.598;2023-11-21T04:28:48;7.50;99.90
16513;DHT22;8369;48.030;11.598;2023-11-21T04:31:15;7.50;99.90
16513;DHT22;8369;48.030;11.598;2023-11-21T04:33:42;7.50;99.90
16513;DHT22;8369;48.030;11.598;2023-11-21T04:36:08;7.50;99.90
16513;DHT22;8369;48.030;11.598;2023-11-21T04:38:34;7.50;99.90
16513;DHT22;8369;48.030;11.598;2023-11-21T04:41:01;7.50;99.90
16513;DHT22;8369;48.030;11.598;2023-11-21T04:43:27;7.50;99.90
16513;DHT22;8369;48.030;11.598;2023-11-21T04:45:54;7.50;99.90
16513;DHT22;8369;48.030;11.598;2023-11-21T04:48:27;7.50;99.90
16513;DHT22;8369;48.030;11.598;2023-11-21T04:50:53;7.50;99.90
16513;DHT22;8369;48.030;11.598;2023-11-21T04:53:21;7.50;99.90
16513;DHT22;8369;48.030;11.598;2023-11-21T04:55:47;7.50;99.90
16513;DHT22;8369;48.030;11.598;2023-11-21T04:58:14;7.50;99.90
16513;DHT22;8369;48.030;11.598;2023-11-21T05:00:40;7.60;99.90
16513;DHT22;8369;48.030;11.598;2023-11-21T05:03:07;7.50;99.90
16513;DHT22;8369;48.030;11.598;2023-11-21T05:05:43;7.60;99.90
16513;DHT22;8369;48.030;11.598;2023-11-21T05:08:10;7.50;99.90
16513;DHT22;8369;48.030;11.598;2023-11-21T05:10:37;7.50;99.90
16513;DHT22;8369;48.030;11.598;2023-11-21T05:13:05;7.30;99.90
16513;DHT22;8369;48.030;11.598;2023-11-21T05:15:35;7.30;99.90
16513;DHT22;8369;48.030;11.598;2023-11-21T05:18:01;7.30;99.90
16513;DHT22;8369;48.030;11.598;2023-11-21T05:20:27;7.30;99.90
16513;DHT22;8369;48.030;11.598;2023-11-21T05:22:53;7.20;99.90
16513;DHT22;8369;48.030;11.598;2023-11-21T05:25:19;7.30;99.90
16513;DHT22;8369;48.030;11.598;2023-11-21T05:27:48;7.30;99.90
16513;DHT22;8369;48.030;11.598;2023-11-21T05:30:14;7.30;99.90
16513;DHT22;8369;48.030;11.598;2023-11-21T05:32:41;7.30;99.90
16513;DHT22;8369;48.030;11.598;2023-11-21T05:35:11;7.30;99.90
16513;DHT22;8369;48.030;11.598;2023-11-21T05:37:42;7.30;99.90
16513;DHT22;8369;48.030;11.598;2023-11-21T05:40:09;7.30;99.90
16513;DHT22;8369;48.030;11.598;2023-11-21T05:42:36;7.30;99.90
16513;DHT22;8369;48.030;11.598;2023-11-21T05:45:02;7.30;99.90
16513;DHT22;8369;48.030;11.598;2023-11-21T05:47:46;7.30;99.90
16513;DHT22;8369;48.030;11.598;2023-11-21T05:50:15;7.30;99.90
16513;DHT22;8369;48.030;11.598;2023-11-21T05:52:42;7.30;99.90
16513;DHT22;8369;48.030;11.598;2023-11-21T05:55:09;7.30;99.90
16513;DHT22;8369;48.030;11.598;2023-11-21T05:57:36;7.30;99.90
16513;DHT22;8369;48.030;11.598;2023-11-21T06:00:06;7.30;99.90
16513;DHT22;8369;48.030;11.598;2023-11-21T06:02:53;7.30;99.90
16513;DHT22;8369;48.030;11.598;2023-11-21T06:05:22;7.30;99.90
16513;DHT22;8369;48.030;11.598;2023-11-21T06:07:52;7.30;99.90
16513;DHT22;8369;48.030;11.598;2023-11-21T06:10:20;7.20;99.90
16513;DHT22;8369;48.030;11.598;2023-11-21T06:12:47;7.20;99.90
16513;DHT22;8369;48.030;11.598;2023-11-21T06:15:13;7.20;99.90
16513;DHT22;8369;48.030;11.598;2023-11-21T06:17:40;7.30;99.90
16513;DHT22;8369;48.030;11.598;2023-11-21T06:20:08;7.30;99.90
16513;DHT22;8369;48.030;11.598;2023-11-21T06:22:47;7.30;99.90
16513;DHT22;8369;48.030;11.598;2023-11-21T06:25:13;7.30;99.90
16513;DHT22;8369;48.030;11.598;2023-11-21T06:27:44;7.30;99.90
16513;DHT22;8369;48.030;11.598;2023-11-21T06:30:11;7.30;99.90
16513;DHT22;8369;48.030;11.598;2023-11-21T06:32:38;7.30;99.90
16513;DHT22;8369;48.030;11.598;2023-11-21T06:35:06;7.30;99.90
16513;DHT22;8369;48.030;11.598;2023-11-21T06:37:34;7.30;99.90
16513;DHT22;8369;48.030;11.598;2023-11-21T06:40:00;7.30;99.90
16513;DHT22;8369;48.030;11.598;2023-11-21T06:42:28;7.30;99.90
16513;DHT22;8369;48.030;11.598;2023-11-21T06:44:56;7.30;99.90
16513;DHT22;8369;48.030;11.598;2023-11-21T06:47:23;7.30;99.90
16513;DHT22;8369;48.030;11.598;2023-11-21T06:49:53;7.30;99.90
16513;DHT22;8369;48.030;11.598;2023-11-21T06:52:21;7.30;99.90
16513;DHT22;8369;48.030;11.598;2023-11-21T06:54:48;7.30;99.90
16513;DHT22;8369;48.030;11.598;2023-11-21T06:57:19;7.30;99.90
16513;DHT22;8369;48.030;11.598;2023-11-21T06:59:45;7.30;99.90
16513;DHT22;8369;48.030;11.598;2023-11-21T07:02:13;7.30;99.90
16513;DHT22;8369;48.030;11.598;2023-11-21T07:04:40;7.30;99.90
16513;DHT22;8369;48.030;11.598;2023-11-21T07:07:06;7.30;99.90
16513;DHT22;8369;48.030;11.598;2023-11-21T07:09:35;7.30;99.90
16513;DHT22;8369;48.030;11.598;2023-11-21T07:12:04;7.30;99.90
16513;DHT22;8369;48.030;11.598;2023-11-21T07:14:32;7.40;99.90
16513;DHT22;8369;48.030;11.598;2023-11-21T07:16:58;7.40;99.90
16513;DHT22;8369;48.030;11.598;2023-11-21T07:19:26;7.40;99.90
16513;DHT22;8369;48.030;11.598;2023-11-21T07:21:52;7.40;99.90
16513;DHT22;8369;48.030;11.598;2023-11-21T07:24:25;7.40;99.90
16513;DHT22;8369;48.030;11.598;2023-11-21T07:26:52;7.40;99.90
16513;DHT22;8369;48.030;11.598;2023-11-21T07:29:24;7.40;99.90
16513;DHT22;8369;48.030;11.598;2023-11-21T07:31:55;7.40;99.90
16513;DHT22;8369;48.030;11.598;2023-11-21T07:34:22;7.40;99.90
16513;DHT22;8369;48.030;11.598;2023-11-21T07:36:48;7.40;99.90
16513;DHT22;8369;48.030;11.598;2023-11-21T07:39:14;7.40;99.90
16513;DHT22;8369;48.030;11.598;2023-11-21T07:41:44;7.40;99.90
16513;DHT22;8369;48.030;11.598;2023-11-21T07:44:15;7.40;99.90
16513;DHT22;8369;48.030;11.598;2023-11-21T07:46:43;7.40;99.90
16513;DHT22;8369;48.030;11.598;2023-11-21T07:49:12;7.50;99.90
16513;DHT22;8369;48.030;11.598;2023-11-21T07:51:44;7.40;99.90
16513;DHT22;8369;48.030;11.598;2023-11-21T07:54:10;7.40;99.90
16513;DHT22;8369;48.030;11.598;2023-11-21T07:56:39;7.40;99.90
16513;DHT22;8369;48.030;11.598;2023-11-21T07:59:10;7.50;99.90
16513;DHT22;8369;48.030;11.598;2023-11-21T08:01:36;7.50;99.90
16513;DHT22;8369;48.030;11.598;2023-11-21T08:04:04;7.50;99.90
16513;DHT22;8369;48.030;11.598;2023-11-21T08:06:32;7.50;99.90
16513;DHT22;8369;48.030;11.598;2023-11-21T08:08:59;7.50;99.90
16513;DHT22;8369;48.030;11.598;2023-11-21T08:11:25;7.50;99.90
16513;DHT22;8369;48.030;11.598;2023-11-21T08:13:52;7.50;99.90
16513;DHT22;8369;48.030;11.598;2023-11-21T08:16:20;7.60;99.90
16513;DHT22;8369;48.030;11.598;2023-11-21T08:18:48;7.60;99.90
16513;DHT22;8369;48.030;11.598;2023-11-21T08:21:13;7.60;99.90
16513;DHT22;8369;48.030;11.598;2023-11-21T08:23:40;7.60;99.90
16513;DHT22;8369;48.030;11.598;2023-11-21T08:26:06;7.60;99.90
16513;DHT22;8369;48.030;11.598;2023-11-21T08:28:32;7.60;99.90
16513;DHT22;8369;48.030;11.598;2023-11-21T08:30:58;7.70;99.90
16513;DHT22;8369;48.030;11.598;2023-11-21T08:33:29;7.70;99.90
16513;DHT22;8369;48.030;11.598;2023-11-21T08:35:55;7.70;99.90
16513;DHT22;8369;48.030;11.598;2023-11-21T08:38:23;7.60;99.90
16513;DHT22;8369;48.030;11.598;2023-11-21T08:40:51;7.70;99.90
16513;DHT22;8369;48.030;11.598;2023-11-21T08:43:17;7.60;99.90
16513;DHT22;8369;48.030;11.598;2023-11-21T08:45:47;7.70;99.90
16513;DHT22;8369;48.030;11.598;2023-11-21T08:48:20;7.70;99.90
16513;DHT22;8369;48.030;11.598;2023-11-21T08:50:46;7.70;99.90
16513;DHT22;8369;48.030;11.598;2023-11-21T08:53:12;7.70;99.90
16513;DHT22;8369;48.030;11.598;2023-11-21T08:55:39;7.70;99.90
16513;DHT22;8369;48.030;11.598;2023-11-21T08:58:05;7.70;99.90
16513;DHT22;8369;48.030;11.598;2023-11-21T09:00:32;7.70;99.90
16513;DHT22;8369;48.030;11.598;2023-11-21T09:02:58;7.80;99.90
16513;DHT22;8369;48.030;11.598;2023-11-21T09:05:25;7.80;99.90
16513;DHT22;8369;48.030;11.598;2023-11-21T09:07:51;7.90;99.90
16513;DHT22;8369;48.030;11.598;2023-11-21T09:10:19;7.90;99.90
16513;DHT22;8369;48.030;11.598;2023-11-21T09:12:46;7.90;99.90
16513;DHT22;8369;48.030;11.598;2023-11-21T09:15:12;8.00;99.90
16513;DHT22;8369;48.030;11.598;2023-11-21T09:17:39;8.00;99.90
16513;DHT22;8369;48.030;11.598;2023-11-21T09:20:06;8.00;99.90
16513;DHT22;8369;48.030;11.598;2023-11-21T09:22:50;8.10;99.90
16513;DHT22;8369;48.030;11.598;2023-11-21T09:25:16;8.10;99.90
16513;DHT22;8369;48.030;11.598;2023-11-21T09:27:42;8.10;99.90
16513;DHT22;8369;48.030;11.598;2023-11-21T09:30:09;8.20;99.90
16513;DHT22;8369;48.030;11.598;2023-11-21T09:32:35;8.20;99.90
16513;DHT22;8369;48.030;11.598;2023-11-21T09:35:04;8.20;99.90
16513;DHT22;8369;48.030;11.598;2023-11-21T09:37:30;8.10;99.90
16513;DHT22;8369;48.030;11.598;2023-11-21T09:39:57;8.10;99.90
16513;DHT22;8369;48.030;11.598;2023-11-21T09:42:40;8.10;99.90
16513;DHT22;8369;48.030;11.598;2023-11-21T09:47:50;8.10;99.90
16513;DHT22;8369;48.030;11.598;2023-11-21T09:50:18;8.20;99.90
16513;DHT22;8369;48.030;11.598;2023-11-21T09:55:36;8.20;99.90
16513;DHT22;8369;48.030;11.598;2023-11-21T09:58:04;8.20;99.90
16513;DHT22;8369;48.030;11.598;2023-11-21T10:00:33;8.30;99.90
16513;DHT22;8369;48.030;11.598;2023-11-21T10:02:59;8.30;99.90
16513;DHT22;8369;48.030;11.598;2023-11-21T10:05:26;8.30;99.90
16513;DHT22;8369;48.030;11.598;2023-11-21T10:07:52;8.40;99.90
16513;DHT22;8369;48.030;11.598;2023-11-21T10:10:19;8.40;99.90
16513;DHT22;8369;48.030;11.598;2023-11-21T10:12:51;8.40;99.90
16513;DHT22;8369;48.030;11.598;2023-11-21T10:15:21;8.40;99.90
16513;DHT22;8369;48.030;11.598;2023-11-21T10:17:49;8.40;99.90
16513;DHT22;8369;48.030;11.598;2023-11-21T10:20:17;8.40;99.90
16513;DHT22;8369;48.030;11.598;2023-11-21T10:22:43;8.40;99.90
16513;DHT22;8369;48.030;11.598;2023-11-21T10:25:10;8.40;99.90
16513;DHT22;8369;48.030;11.598;2023-11-21T10:27:39;8.40;99.90
16513;DHT22;8369;48.030;11.598;2023-11-21T10:30:08;8.40;99.90
16513;DHT22;8369;48.030;11.598;2023-11-21T10:32:41;8.40;99.90
16513;DHT22;8369;48.030;11.598;2023-11-21T10:35:08;8.40;99.90
16513;DHT22;8369;48.030;11.598;2023-11-21T10:37:39;8.40;99.90
16513;DHT22;8369;48.030;11.598;2023-11-21T10:40:07;8.40;99.90
16513;DHT22;8369;48.030;11.598;2023-11-21T10:42:36;8.40;99.90
16513;DHT22;8369;48.030;11.598;2023-11-21T10:45:04;8.40;99.90
16513;DHT22;8369;48.030;11.598;2023-11-21T10:47:36;8.30;99.90
16513;DHT22;8369;48.030;11.598;2023-11-21T10:50:04;8.30;99.90
16513;DHT22;8369;48.030;11.598;2023-11-21T10:52:30;8.40;99.90
16513;DHT22;8369;48.030;11.598;2023-11-21T10:54:58;8.40;99.90
16513;DHT22;8369;48.030;11.598;2023-11-21T10:57:25;8.40;99.90
16513;DHT22;8369;48.030;11.598;2023-11-21T10:59:55;8.50;99.90
16513;DHT22;8369;48.030;11.598;2023-11-21T11:02:26;8.50;99.90
16513;DHT22;8369;48.030;11.598;2023-11-21T11:04:54;8.50;99.90
16513;DHT22;8369;48.030;11.598;2023-11-21T11:07:26;8.50;99.90
16513;DHT22;8369;48.030;11.598;2023-11-21T11:09:56;8.50;99.90
16513;DHT22;8369;48.030;11.598;2023-11-21T11:12:24;8.50;99.90
16513;DHT22;8369;48.030;11.598;2023-11-21T11:14:51;8.50;99.90
16513;DHT22;8369;48.030;11.598;2023-11-21T11:17:22;8.50;99.90
16513;DHT22;8369;48.030;11.598;2023-11-21T11:19:48;8.60;99.90
16513;DHT22;8369;48.030;11.598;2023-11-21T11:31:04;8.70;99.90
16513;DHT22;8369;48.030;11.598;2023-11-21T11:33:52;8.80;99.90
16513;DHT22;8369;48.030;11.598;2023-11-21T11:36:44;8.80;99.90
16513;DHT22;8369;48.030;11.598;2023-11-21T11:39:41;8.90;99.90
16513;DHT22;8369;48.030;11.598;2023-11-21T11:42:14;9.00;99.90
16513;DHT22;8369;48.030;11.598;2023-11-21T11:44:48;9.00;99.90
16513;DHT22;8369;48.030;11.598;2023-11-21T11:47:28;9.00;99.90
16513;DHT22;8369;48.030;11.598;2023-11-21T11:50:10;9.10;99.90
16513;DHT22;8369;48.030;11.598;2023-11-21T11:52:44;9.10;99.90
16513;DHT22;8369;48.030;11.598;2023-11-21T11:55:15;9.10;99.90
16513;DHT22;8369;48.030;11.598;2023-11-21T11:57:59;9.10;99.90
16513;DHT22;8369;48.030;11.598;2023-11-21T12:03:07;9.10;99.90
16513;DHT22;8369;48.030;11.598;2023-11-21T12:05:36;9.10;99.90
16513;DHT22;8369;48.030;11.598;2023-11-21T12:08:06;9.10;99.90
16513;DHT22;8369;48.030;11.598;2023-11-21T12:10:34;9.10;99.90
16513;DHT22;8369;48.030;11.598;2023-11-21T12:13:06;9.10;99.90
16513;DHT22;8369;48.030;11.598;2023-11-21T12:15:39;9.10;99.90
16513;DHT22;8369;48.030;11.598;2023-11-21T12:18:15;9.10;99.90
16513;DHT22;8369;48.030;11.598;2023-11-21T12:20:41;9.10;99.90
16513;DHT22;8369;48.030;11.598;2023-11-21T12:23:11;9.10;99.90
16513;DHT22;8369;48.030;11.598;2023-11-21T12:25:40;9.10;99.90
16513;DHT22;8369;48.030;11.598;2023-11-21T12:28:07;9.10;99.90
16513;DHT22;8369;48.030;11.598;2023-11-21T12:30:35;9.10;99.90
16513;DHT22;8369;48.030;11.598;2023-11-21T12:33:04;9.10;99.90
16513;DHT22;8369;48.030;11.598;2023-11-21T12:35:34;9.10;99.90
16513;DHT22;8369;48.030;11.598;2023-11-21T12:38:02;9.20;99.90
16513;DHT22;8369;48.030;11.598;2023-11-21T12:40:34;9.30;99.90
16513;DHT22;8369;48.030;11.598;2023-11-21T12:43:00;9.20;99.90
16513;DHT22;8369;48.030;11.598;2023-11-21T12:45:30;9.30;99.90
16513;DHT22;8369;48.030;11.598;2023-11-21T12:48:02;9.30;99.90
16513;DHT22;8369;48.030;11.598;2023-11-21T12:50:36;9.40;99.90
16513;DHT22;8369;48.030;11.598;2023-11-21T12:53:10;9.40;99.90
16513;DHT22;8369;48.030;11.598;2023-11-21T12:55:38;9.30;99.90
16513;DHT22;8369;48.030;11.598;2023-11-21T12:58:06;9.30;99.90
16513;DHT22;8369;48.030;11.598;2023-11-21T13:00:44;9.40;99.90
16513;DHT22;8369;48.030;11.598;2023-11-21T13:03:12;9.40;99.90
16513;DHT22;8369;48.030;11.598;2023-11-21T13:05:48;9.40;99.90
16513;DHT22;8369;48.030;11.598;2023-11-21T13:08:23;9.40;99.90
16513;DHT22;8369;48.030;11.598;2023-11-21T13:10:53;9.40;99.90
16513;DHT22;8369;48.030;11.598;2023-11-21T13:13:41;9.40;99.90
16513;DHT22;8369;48.030;11.598;2023-11-21T13:16:08;9.40;99.90
16513;DHT22;8369;48.030;11.598;2023-11-21T13:18:36;9.40;99.90
16513;DHT22;8369;48.030;11.598;2023-11-21T13:21:09;9.40;99.90
16513;DHT22;8369;48.030;11.598;2023-11-21T13:23:39;9.40;99.90
16513;DHT22;8369;48.030;11.598;2023-11-21T13:26:08;9.40;99.90
16513;DHT22;8369;48.030;11.598;2023-11-21T13:28:36;9.40;99.90
16513;DHT22;8369;48.030;11.598;2023-11-21T13:31:04;9.40;99.90
16513;DHT22;8369;48.030;11.598;2023-11-21T13:33:50;9.50;99.90
16513;DHT22;8369;48.030;11.598;2023-11-21T13:36:27;9.50;99.90
16513;DHT22;8369;48.030;11.598;2023-11-21T13:38:57;9.50;99.90
16513;DHT22;8369;48.030;11.598;2023-11-21T13:41:24;9.40;99.90
16513;DHT22;8369;48.030;11.598;2023-11-21T13:43:57;9.40;99.90
16513;DHT22;8369;48.030;11.598;2023-11-21T13:46:42;9.50;99.90
16513;DHT22;8369;48.030;11.598;2023-11-21T13:49:09;9.50;99.90
16513;DHT22;8369;48.030;11.598;2023-11-21T13:51:36;9.40;99.90
16513;DHT22;8369;48.030;11.598;2023-11-21T13:54:39;9.40;99.90
16513;DHT22;8369;48.030;11.598;2023-11-21T13:57:04;9.40;99.90
16513;DHT22;8369;48.030;11.598;2023-11-21T13:59:34;9.40;99.90
16513;DHT22;8369;48.030;11.598;2023-11-21T14:01:59;9.40;99.90
16513;DHT22;8369;48.030;11.598;2023-11-21T14:04:28;9.40;99.90
16513;DHT22;8369;48.030;11.598;2023-11-21T14:07:22;9.40;99.90
16513;DHT22;8369;48.030;11.598;2023-11-21T14:09:57;9.40;99.90
16513;DHT22;8369;48.030;11.598;2023-11-21T14:12:24;9.40;99.90
16513;DHT22;8369;48.030;11.598;2023-11-21T14:14:54;9.40;99.90
16513;DHT22;8369;48.030;11.598;2023-11-21T14:17:20;9.30;99.90
16513;DHT22;8369;48.030;11.598;2023-11-21T14:19:49;9.30;99.90
16513;DHT22;8369;48.030;11.598;2023-11-21T14:22:15;9.30;99.90
16513;DHT22;8369;48.030;11.598;2023-11-21T14:24:48;9.30;99.90
16513;DHT22;8369;48.030;11.598;2023-11-21T14:27:16;9.30;99.90
16513;DHT22;8369;48.030;11.598;2023-11-21T14:29:42;9.30;99.90
16513;DHT22;8369;48.030;11.598;2023-11-21T14:32:10;9.30;99.90
16513;DHT22;8369;48.030;11.598;2023-11-21T14:34:37;9.30;99.90
16513;DHT22;8369;48.030;11.598;2023-11-21T14:37:03;9.30;99.90
16513;DHT22;8369;48.030;11.598;2023-11-21T14:39:29;9.40;99.90
16513;DHT22;8369;48.030;11.598;2023-11-21T14:41:57;9.30;99.90
16513;DHT22;8369;48.030;11.598;2023-11-21T14:44:25;9.30;99.90
16513;DHT22;8369;48.030;11.598;2023-11-21T14:46:52;9.30;99.90
16513;DHT22;8369;48.030;11.598;2023-11-21T14:49:20;9.30;99.90
16513;DHT22;8369;48.030;11.598;2023-11-21T14:51:50;9.20;99.90
16513;DHT22;8369;48.030;11.598;2023-11-21T14:54:30;9.10;99.90
16513;DHT22;8369;48.030;11.598;2023-11-21T14:57:34;9.10;99.90
16513;DHT22;8369;48.030;11.598;2023-11-21T15:00:11;8.90;99.90
16513;DHT22;8369;48.030;11.598;2023-11-21T15:02:57;8.90;99.90
16513;DHT22;8369;48.030;11.598;2023-11-21T15:05:22;8.70;99.90
16513;DHT22;8369;48.030;11.598;2023-11-21T15:08:01;8.50;99.90
16513;DHT22;8369;48.030;11.598;2023-11-21T15:11:01;8.40;99.90
16513;DHT22;8369;48.030;11.598;2023-11-21T15:13:51;8.30;99.90
16513;DHT22;8369;48.030;11.598;2023-11-21T15:16:19;8.30;99.90
16513;DHT22;8369;48.030;11.598;2023-11-21T15:18:45;8.20;99.90
16513;DHT22;8369;48.030;11.598;2023-11-21T15:21:11;8.20;99.90
16513;DHT22;8369;48.030;11.598;2023-11-21T15:23:38;8.10;99.90
16513;DHT22;8369;48.030;11.598;2023-11-21T15:26:06;8.10;99.90
16513;DHT22;8369;48.030;11.598;2023-11-21T15:28:34;8.10;99.90
16513;DHT22;8369;48.030;11.598;2023-11-21T15:31:08;8.00;99.90
16513;DHT22;8369;48.030;11.598;2023-11-21T15:33:35;8.00;99.90
16513;DHT22;8369;48.030;11.598;2023-11-21T15:36:04;8.00;99.90
16513;DHT22;8369;48.030;11.598;2023-11-21T15:38:33;8.00;99.90
16513;DHT22;8369;48.030;11.598;2023-11-21T15:40:59;7.90;99.90
16513;DHT22;8369;48.030;11.598;2023-11-21T15:43:25;7.90;99.90
16513;DHT22;8369;48.030;11.598;2023-11-21T15:45:53;7.90;99.90
16513;DHT22;8369;48.030;11.598;2023-11-21T15:48:20;7.90;99.90
16513;DHT22;8369;48.030;11.598;2023-11-21T15:50:46;7.80;99.90
16513;DHT22;8369;48.030;11.598;2023-11-21T15:53:13;7.80;99.90
16513;DHT22;8369;48.030;11.598;2023-11-21T15:55:42;7.80;99.90
16513;DHT22;8369;48.030;11.598;2023-11-21T15:58:09;7.70;99.90
16513;DHT22;8369;48.030;11.598;2023-11-21T16:00:37;7.70;99.90
16513;DHT22;8369;48.030;11.598;2023-11-21T16:03:05;7.70;99.90
16513;DHT22;8369;48.030;11.598;2023-11-21T16:05:36;7.70;99.90
16513;DHT22;8369;48.030;11.598;2023-11-21T16:08:02;7.70;99.90
16513;DHT22;8369;48.030;11.598;2023-11-21T16:10:28;7.70;99.90
16513;DHT22;8369;48.030;11.598;2023-11-21T16:12:58;7.70;99.90
16513;DHT22;8369;48.030;11.598;2023-11-21T16:15:28;7.70;99.90